createdAt,value
2018-04-20T00:00:37.145Z,37.53
2018-04-20T00:03:03.470Z,37.44
2018-04-20T00:05:29.864Z,37.62
2018-04-20T00:07:56.239Z,37.53
2018-04-20T00:10:22.556Z,37.51
2018-04-20T00:12:49.039Z,37.43
2018-04-20T00:15:15.384Z,37.57
2018-04-20T00:17:41.715Z,37.50
2018-04-20T00:20:08.096Z,37.53
2018-04-20T00:22:34.460Z,37.47
2018-04-20T00:25:00.803Z,37.45
2018-04-20T00:27:27.178Z,37.40
2018-04-20T00:29:53.592Z,37.43
2018-04-20T00:32:19.938Z,37.46
2018-04-20T00:34:46.314Z,37.37
2018-04-20T00:37:12.637Z,37.33
2018-04-20T00:39:38.960Z,37.48
2018-04-20T00:42:05.358Z,37.36
2018-04-20T00:44:31.681Z,37.46
2018-04-20T00:46:58.057Z,37.40
2018-04-20T00:49:24.515Z,37.23
2018-04-20T00:51:50.838Z,37.39
2018-04-20T00:54:17.159Z,37.37
2018-04-20T00:56:43.572Z,37.45
2018-04-20T00:59:09.890Z,37.46
2018-04-20T01:01:36.211Z,37.35
2018-04-20T01:04:02.584Z,37.15
2018-04-20T01:06:28.930Z,37.00
2018-04-20T01:08:55.382Z,37.02
2018-04-20T01:11:21.785Z,37.15
2018-04-20T01:13:48.156Z,36.95
2018-04-20T01:16:14.513Z,37.29
2018-04-20T01:18:40.902Z,37.58
2018-04-20T01:21:07.239Z,37.44
2018-04-20T01:23:33.589Z,37.17
2018-04-20T01:26:00.022Z,37.31
2018-04-20T01:28:26.335Z,37.40
2018-04-20T01:30:52.671Z,37.30
2018-04-20T01:33:18.996Z,37.24
2018-04-20T01:35:45.368Z,37.36
2018-04-20T01:38:11.748Z,37.30
2018-04-20T01:40:38.069Z,37.14
2018-04-20T01:43:04.395Z,37.36
2018-04-20T01:45:30.720Z,37.16
2018-04-20T01:47:57.045Z,37.40
2018-04-20T01:50:23.430Z,37.23
2018-04-20T01:52:49.935Z,37.07
2018-04-20T01:55:16.584Z,37.35
2018-04-20T01:57:42.952Z,37.23
2018-04-20T02:00:09.583Z,37.24
2018-04-20T02:02:36.299Z,37.10
2018-04-20T02:05:02.631Z,37.17
2018-04-20T02:07:29.283Z,37.23
2018-04-20T02:09:55.791Z,37.08
2018-04-20T02:12:22.150Z,37.31
2018-04-20T02:14:48.600Z,37.24
2018-04-20T02:17:15.137Z,37.09
2018-04-20T02:19:41.461Z,37.18
2018-04-20T02:22:08.001Z,37.08
2018-04-20T02:24:34.462Z,37.05
2018-04-20T02:27:00.821Z,37.20
2018-04-20T02:29:27.244Z,37.16
2018-04-20T02:31:53.670Z,37.19
2018-04-20T02:34:20.904Z,37.21
2018-04-20T02:36:47.312Z,37.09
2018-04-20T02:39:14.095Z,37.09
2018-04-20T02:41:40.761Z,37.00
2018-04-20T02:44:07.113Z,37.14
2018-04-20T02:46:33.457Z,37.18
2018-04-20T02:48:59.804Z,37.11
2018-04-20T02:51:26.452Z,37.03
2018-04-20T02:53:52.809Z,36.91
2018-04-20T02:56:19.191Z,36.83
2018-04-20T02:58:45.784Z,36.58
2018-04-20T03:01:12.217Z,36.54
2018-04-20T03:03:38.584Z,36.54
2018-04-20T03:06:05.078Z,36.24
2018-04-20T03:08:31.402Z,36.51
2018-04-20T03:10:58.288Z,36.34
2018-04-20T03:13:24.790Z,36.28
2018-04-20T03:15:51.191Z,36.14
2018-04-20T03:18:17.523Z,35.86
2018-04-20T03:20:43.879Z,35.76
2018-04-20T03:23:10.319Z,36.08
2018-04-20T03:25:37.036Z,35.92
2018-04-20T03:28:03.389Z,35.98
2018-04-20T03:30:29.759Z,35.79
2018-04-20T03:32:56.202Z,35.61
2018-04-20T03:35:22.574Z,35.81
2018-04-20T03:37:49.000Z,36.05
2018-04-20T03:40:15.386Z,36.04
2018-04-20T03:42:41.717Z,36.35
2018-04-20T03:45:08.055Z,36.39
2018-04-20T03:47:34.391Z,36.46
2018-04-20T03:50:00.725Z,36.46
2018-04-20T03:52:27.114Z,36.29
2018-04-20T03:54:53.442Z,36.57
2018-04-20T03:57:19.792Z,36.45
2018-04-20T03:59:46.144Z,36.47
2018-04-20T04:02:12.479Z,36.53
2018-04-20T04:04:38.823Z,36.40
2018-04-20T04:07:05.186Z,36.16
2018-04-20T04:09:31.516Z,36.18
2018-04-20T04:11:57.883Z,36.33
2018-04-20T04:14:24.218Z,36.37
2018-04-20T04:16:50.612Z,36.45
2018-04-20T04:19:16.942Z,36.08
2018-04-20T04:21:43.398Z,36.40
2018-04-20T04:24:09.761Z,36.38
2018-04-20T04:26:36.125Z,36.47
2018-04-20T04:29:02.534Z,36.34
2018-04-20T04:31:28.854Z,36.21
2018-04-20T04:33:55.287Z,36.41
2018-04-20T04:36:21.624Z,36.63
2018-04-20T04:38:47.960Z,36.71
2018-04-20T04:41:14.321Z,36.55
2018-04-20T04:43:40.668Z,36.78
2018-04-20T04:46:07.068Z,36.78
2018-04-20T04:48:33.405Z,36.88
2018-04-20T04:51:00.796Z,36.87
2018-04-20T04:53:27.281Z,36.86
2018-04-20T04:55:53.663Z,36.97
2018-04-20T04:58:19.996Z,36.76
2018-04-20T05:00:46.332Z,36.93
2018-04-20T05:03:12.742Z,36.69
2018-04-20T05:05:39.070Z,36.60
2018-04-20T05:08:05.485Z,36.64
2018-04-20T05:10:31.862Z,36.59
2018-04-20T05:12:58.200Z,36.75
2018-04-20T05:15:24.560Z,36.76
2018-04-20T05:17:50.734Z,37.10
2018-04-20T05:20:17.100Z,36.89
2018-04-20T05:22:43.476Z,37.17
2018-04-20T05:25:10.028Z,37.39
2018-04-20T05:27:36.461Z,37.06
2018-04-20T05:30:02.854Z,37.25
2018-04-20T05:32:29.211Z,37.43
2018-04-20T05:34:55.584Z,37.46
2018-04-20T05:37:21.924Z,37.72
2018-04-20T05:39:48.288Z,37.40
2018-04-20T05:42:14.716Z,38.72
2018-04-20T05:44:41.052Z,37.88
2018-04-20T05:47:07.406Z,38.07
2018-04-20T05:49:34.564Z,37.66
2018-04-20T05:52:01.263Z,37.63
2018-04-20T05:54:27.716Z,37.75
2018-04-20T05:56:54.184Z,37.89
2018-04-20T05:59:20.618Z,37.66
2018-04-20T06:01:47.022Z,37.49
2018-04-20T06:04:13.449Z,37.64
2018-04-20T06:06:39.858Z,37.42
2018-04-20T06:09:06.335Z,37.60
2018-04-20T06:11:32.764Z,37.88
2018-04-20T06:13:59.097Z,37.46
2018-04-20T06:16:25.441Z,37.43
2018-04-20T06:18:51.841Z,37.82
2018-04-20T06:21:18.196Z,37.29
2018-04-20T06:23:44.525Z,37.17
2018-04-20T06:26:10.950Z,37.35
2018-04-20T06:28:37.319Z,37.17
2018-04-20T06:31:03.651Z,37.30
2018-04-20T06:33:29.987Z,37.26
2018-04-20T06:35:56.392Z,37.55
2018-04-20T06:38:22.721Z,37.66
2018-04-20T06:40:49.118Z,37.69
2018-04-20T06:43:15.776Z,37.24
2018-04-20T06:45:42.176Z,37.33
2018-04-20T06:48:08.540Z,37.33
2018-04-20T06:50:34.936Z,37.39
2018-04-20T06:53:01.363Z,37.22
2018-04-20T06:55:27.715Z,37.33
2018-04-20T06:57:54.065Z,37.46
2018-04-20T07:00:20.453Z,36.98
2018-04-20T07:02:46.819Z,36.86
2018-04-20T07:05:13.193Z,36.53
2018-04-20T07:07:39.534Z,36.35
2018-04-20T07:10:05.959Z,36.63
2018-04-20T07:12:32.294Z,36.64
2018-04-20T07:14:58.872Z,36.16
2018-04-20T07:17:25.239Z,36.59
2018-04-20T07:19:52.530Z,35.92
2018-04-20T07:22:18.937Z,36.20
2018-04-20T07:24:45.369Z,36.03
2018-04-20T07:27:11.754Z,35.97
2018-04-20T07:29:38.187Z,35.80
2018-04-20T07:32:04.629Z,35.74
2018-04-20T07:34:31.033Z,36.41
2018-04-20T07:36:57.410Z,36.44
2018-04-20T07:39:23.818Z,36.14
2018-04-20T07:41:50.257Z,35.90
2018-04-20T07:44:16.814Z,36.61
2018-04-20T07:46:43.300Z,36.04
2018-04-20T07:49:09.829Z,35.93
2018-04-20T07:51:36.196Z,35.90
2018-04-20T07:54:02.571Z,36.18
2018-04-20T07:56:29.051Z,36.24
2018-04-20T07:58:55.491Z,37.00
2018-04-20T08:01:22.163Z,37.20
2018-04-20T08:03:48.648Z,37.23
2018-04-20T08:06:15.142Z,37.50
2018-04-20T08:08:41.529Z,37.38
2018-04-20T08:11:07.921Z,36.86
2018-04-20T08:13:34.398Z,36.66
2018-04-20T08:16:00.765Z,37.05
2018-04-20T08:18:27.134Z,36.53
2018-04-20T08:20:53.516Z,36.02
2018-04-20T08:23:19.883Z,36.66
2018-04-20T08:25:46.317Z,36.44
2018-04-20T08:28:12.730Z,36.39
2018-04-20T08:30:39.256Z,37.38
2018-04-20T08:33:05.746Z,37.59
2018-04-20T08:35:32.211Z,36.79
2018-04-20T08:37:58.949Z,36.79
2018-04-20T08:40:25.589Z,36.98
2018-04-20T08:42:51.990Z,37.21
2018-04-20T08:45:18.352Z,36.92
2018-04-20T08:47:44.761Z,36.45
2018-04-20T08:50:11.185Z,36.89
2018-04-20T08:52:37.839Z,36.35
2018-04-20T08:55:04.169Z,36.34
2018-04-20T08:57:30.788Z,35.89
2018-04-20T08:59:57.176Z,35.84
2018-04-20T09:02:23.905Z,36.50
2018-04-20T09:04:50.304Z,35.98
2018-04-20T09:07:16.856Z,36.50
2018-04-20T09:09:43.210Z,36.53
2018-04-20T09:12:09.608Z,35.73
2018-04-20T09:14:36.713Z,35.79
2018-04-20T09:17:03.056Z,35.69
2018-04-20T09:19:29.595Z,35.87
2018-04-20T09:21:56.022Z,35.62
2018-04-20T09:24:22.452Z,35.56
2018-04-20T09:26:48.800Z,35.76
2018-04-20T09:29:15.192Z,35.56
2018-04-20T09:31:41.569Z,35.18
2018-04-20T09:34:08.029Z,36.20
2018-04-20T09:36:34.398Z,35.72
2018-04-20T09:39:01.000Z,36.56
2018-04-20T09:41:27.525Z,35.90
2018-04-20T09:43:54.045Z,35.70
2018-04-20T09:46:20.413Z,36.10
2018-04-20T09:48:46.880Z,35.29
2018-04-20T09:51:13.312Z,35.07
2018-04-20T09:53:40.249Z,35.26
2018-04-20T09:56:06.588Z,35.89
2018-04-20T09:58:32.965Z,35.41
2018-04-20T10:00:59.362Z,35.36
2018-04-20T10:03:25.829Z,34.80
2018-04-20T10:05:52.393Z,34.95
2018-04-20T10:08:18.740Z,34.04
2018-04-20T10:10:45.325Z,34.21
2018-04-20T10:13:11.728Z,35.09
2018-04-20T10:15:38.146Z,34.35
2018-04-20T10:18:04.664Z,34.33
2018-04-20T10:20:31.381Z,34.32
2018-04-20T10:22:57.814Z,34.47
2018-04-20T10:25:24.211Z,34.98
2018-04-20T10:27:50.646Z,34.05
2018-04-20T10:30:18.008Z,34.08
2018-04-20T10:32:44.445Z,34.17
2018-04-20T10:35:11.009Z,33.73
2018-04-20T10:37:37.525Z,33.86
2018-04-20T10:40:04.178Z,34.57
2018-04-20T10:42:30.762Z,34.58
2018-04-20T10:44:57.253Z,34.55
2018-04-20T10:47:23.622Z,34.76
2018-04-20T10:49:50.081Z,34.77
2018-04-20T10:52:19.992Z,34.54
2018-04-20T10:54:46.631Z,34.83
2018-04-20T10:57:13.957Z,34.43
2018-04-20T10:59:40.348Z,34.12
2018-04-20T11:02:07.150Z,34.18
2018-04-20T11:04:34.238Z,34.45
2018-04-20T11:07:01.038Z,34.52
2018-04-20T11:09:28.130Z,34.07
2018-04-20T11:11:54.743Z,34.33
2018-04-20T11:14:21.388Z,34.25
2018-04-20T11:16:48.300Z,34.13
2018-04-20T11:19:14.934Z,33.81
2018-04-20T11:21:41.338Z,33.74
2018-04-20T11:24:07.728Z,33.85
2018-04-20T11:26:34.192Z,33.70
2018-04-20T11:29:01.553Z,33.95
2018-04-20T11:31:27.937Z,33.15
2018-04-20T11:33:54.367Z,33.60
2018-04-20T11:36:20.865Z,34.21
2018-04-20T11:38:47.427Z,34.53
2018-04-20T11:41:13.873Z,34.06
2018-04-20T11:43:40.253Z,34.46
2018-04-20T11:46:06.747Z,34.64
2018-04-20T11:48:33.213Z,34.41
2018-04-20T11:50:59.776Z,34.45
2018-04-20T11:53:26.214Z,34.60
2018-04-20T11:55:52.586Z,34.17
2018-04-20T11:58:19.314Z,34.48
2018-04-20T12:03:17.874Z,34.16
2018-04-20T12:05:48.995Z,34.59
2018-04-20T12:08:15.714Z,34.80
2018-04-20T12:10:42.532Z,34.73
2018-04-20T12:13:09.283Z,35.15
2018-04-20T12:15:36.129Z,34.93
2018-04-20T12:18:02.845Z,34.86
2018-04-20T12:20:29.563Z,34.94
2018-04-20T12:22:55.967Z,35.31
2018-04-20T12:25:22.908Z,34.75
2018-04-20T12:27:50.695Z,35.96
2018-04-20T12:30:17.268Z,35.63
2018-04-20T12:32:43.783Z,35.15
2018-04-20T12:35:13.216Z,34.79
2018-04-20T12:37:39.847Z,35.10
2018-04-20T12:40:06.565Z,35.10
2018-04-20T12:42:33.119Z,34.60
2018-04-20T12:45:00.160Z,34.95
2018-04-20T12:47:26.999Z,34.41
2018-04-20T12:49:53.667Z,34.67
2018-04-20T12:52:20.131Z,34.70
2018-04-20T12:54:47.492Z,34.44
2018-04-20T12:57:13.957Z,34.28
2018-04-20T12:59:41.295Z,34.76
2018-04-20T13:02:07.775Z,34.18
2018-04-20T13:04:34.474Z,34.08
2018-04-20T13:07:01.066Z,34.82
2018-04-20T13:09:27.539Z,34.89
2018-04-20T13:11:54.344Z,34.79
2018-04-20T13:14:20.901Z,34.53
2018-04-20T13:16:47.472Z,35.05
2018-04-20T13:19:13.910Z,34.52
2018-04-20T13:21:40.442Z,34.50
2018-04-20T13:24:06.874Z,34.57
2018-04-20T13:26:33.232Z,35.07
2018-04-20T13:28:59.955Z,34.89
2018-04-20T13:31:26.359Z,34.89
2018-04-20T13:33:52.963Z,34.92
2018-04-20T13:36:19.744Z,35.14
2018-04-20T13:38:46.930Z,35.08
2018-04-20T13:41:13.432Z,34.64
2018-04-20T13:43:39.896Z,35.15
2018-04-20T13:46:06.253Z,34.98
2018-04-20T13:48:32.822Z,35.15
2018-04-20T13:50:59.197Z,35.13
2018-04-20T13:53:25.534Z,35.00
2018-04-20T13:55:51.864Z,34.99
2018-04-20T13:58:18.288Z,34.76
2018-04-20T14:00:44.672Z,34.71
2018-04-20T14:03:11.035Z,34.70
2018-04-20T14:05:37.540Z,34.85
2018-04-20T14:08:03.893Z,35.11
2018-04-20T14:10:30.267Z,35.25
2018-04-20T14:12:56.649Z,34.83
2018-04-20T14:15:22.995Z,34.95
2018-04-20T14:17:49.348Z,35.34
2018-04-20T14:20:15.715Z,34.69
2018-04-20T14:22:42.149Z,34.62
2018-04-20T14:25:08.899Z,34.66
2018-04-20T14:27:35.400Z,34.76
2018-04-20T14:30:01.879Z,34.68
2018-04-20T14:32:28.326Z,34.50
2018-04-20T14:34:54.732Z,34.38
2018-04-20T14:37:21.099Z,33.98
2018-04-20T14:39:47.563Z,33.79
2018-04-20T14:42:13.891Z,33.81
2018-04-20T14:44:40.213Z,33.91
2018-04-20T14:47:06.627Z,33.80
2018-04-20T14:49:33.030Z,33.45
2018-04-20T14:51:59.360Z,33.06
2018-04-20T14:54:25.732Z,33.29
2018-04-20T14:56:52.081Z,33.03
2018-04-20T14:59:18.418Z,33.18
2018-04-20T15:01:44.828Z,32.70
2018-04-20T15:04:11.167Z,32.52
2018-04-20T15:06:37.533Z,33.01
2018-04-20T15:09:04.858Z,32.72
2018-04-20T15:11:31.230Z,32.28
2018-04-20T15:13:57.573Z,32.40
2018-04-20T15:16:24.121Z,32.44
2018-04-20T15:18:50.510Z,31.89
2018-04-20T15:21:16.840Z,32.00
2018-04-20T15:23:43.202Z,31.52
2018-04-20T15:26:09.580Z,31.67
2018-04-20T15:28:35.924Z,31.98
2018-04-20T15:31:02.570Z,31.63
2018-04-20T15:33:29.001Z,31.22
2018-04-20T15:35:55.320Z,31.41
2018-04-20T15:38:21.712Z,31.60
2018-04-20T15:40:48.096Z,31.43
2018-04-20T15:43:14.476Z,31.57
2018-04-20T15:45:40.809Z,31.50
2018-04-20T15:48:07.186Z,31.28
2018-04-20T15:50:33.519Z,31.32
2018-04-20T15:52:59.849Z,31.64
2018-04-20T15:55:26.220Z,30.93
2018-04-20T15:57:52.542Z,31.09
2018-04-20T16:00:19.070Z,30.85
2018-04-20T16:02:45.402Z,30.87
2018-04-20T16:05:11.903Z,30.87
2018-04-20T16:07:38.245Z,30.99
2018-04-20T16:10:04.581Z,30.93
2018-04-20T16:12:30.985Z,30.54
2018-04-20T16:14:57.393Z,31.07
2018-04-20T16:17:23.725Z,30.68
2018-04-20T16:19:50.097Z,30.71
2018-04-20T16:22:16.433Z,30.55
2018-04-20T16:24:42.803Z,30.51
2018-04-20T16:27:09.134Z,30.72
2018-04-20T16:29:35.494Z,30.48
2018-04-20T16:32:01.833Z,30.63
2018-04-20T16:34:28.272Z,30.44
2018-04-20T16:36:54.628Z,30.18
2018-04-20T16:39:20.961Z,30.56
2018-04-20T16:41:47.367Z,30.33
2018-04-20T16:44:13.730Z,30.22
2018-04-20T16:46:40.093Z,30.37
2018-04-20T16:49:06.476Z,30.56
2018-04-20T16:51:32.811Z,30.42
2018-04-20T16:53:59.272Z,30.41
2018-04-20T16:56:25.629Z,30.07
2018-04-20T16:58:52.045Z,29.96
2018-04-20T17:01:18.640Z,30.53
2018-04-20T17:03:45.099Z,30.54
2018-04-20T17:06:11.432Z,30.56
2018-04-20T17:08:37.763Z,30.73
2018-04-20T17:11:04.149Z,31.09
2018-04-20T17:13:30.495Z,30.79
2018-04-20T17:15:56.871Z,30.80
2018-04-20T17:18:23.216Z,30.71
2018-04-20T17:20:49.531Z,30.66
2018-04-20T17:23:15.914Z,30.84
2018-04-20T17:25:42.253Z,30.93
2018-04-20T17:28:08.609Z,31.06
2018-04-20T17:30:34.974Z,30.98
2018-04-20T17:33:01.293Z,30.99
2018-04-20T17:35:27.618Z,30.98
2018-04-20T17:37:53.956Z,30.96
2018-04-20T17:40:20.312Z,30.88
2018-04-20T17:42:46.703Z,30.87
2018-04-20T17:45:13.084Z,30.78
2018-04-20T17:47:39.437Z,30.89
2018-04-20T17:50:05.807Z,30.93
2018-04-20T17:52:32.171Z,31.09
2018-04-20T17:54:58.495Z,30.99
2018-04-20T17:57:24.868Z,30.90
2018-04-20T17:59:51.213Z,30.93
2018-04-20T18:02:17.541Z,30.95
2018-04-20T18:04:43.920Z,30.97
2018-04-20T18:07:10.242Z,31.00
2018-04-20T18:09:36.655Z,30.97
2018-04-20T18:12:03.001Z,30.81
2018-04-20T18:14:29.407Z,30.76
2018-04-20T18:16:55.767Z,30.89
2018-04-20T18:19:22.104Z,30.94
2018-04-20T18:21:48.601Z,30.92
2018-04-20T18:24:14.928Z,31.13
2018-04-20T18:26:41.281Z,31.25
2018-04-20T18:29:07.732Z,31.25
2018-04-20T18:31:34.118Z,31.20
2018-04-20T18:34:00.508Z,31.38
2018-04-20T18:36:26.843Z,31.22
2018-04-20T18:38:53.159Z,31.28
2018-04-20T18:41:19.534Z,31.43
2018-04-20T18:43:45.915Z,31.35
2018-04-20T18:46:12.243Z,31.31
2018-04-20T18:48:38.558Z,31.36
2018-04-20T18:51:04.884Z,31.32
2018-04-20T18:53:31.200Z,31.30
2018-04-20T18:55:58.534Z,31.22
2018-04-20T18:58:24.860Z,31.38
2018-04-20T19:00:51.211Z,31.27
2018-04-20T19:03:17.613Z,31.29
2018-04-20T19:05:43.948Z,31.52
2018-04-20T19:08:10.268Z,31.47
2018-04-20T19:10:36.580Z,31.30
2018-04-20T19:13:02.992Z,31.32
2018-04-20T19:15:29.342Z,31.48
2018-04-20T19:17:55.674Z,31.41
2018-04-20T19:20:21.996Z,31.45
2018-04-20T19:22:48.361Z,31.48
2018-04-20T19:25:14.718Z,31.45
2018-04-20T19:27:41.132Z,31.37
2018-04-20T19:30:07.510Z,31.46
2018-04-20T19:32:33.881Z,31.52
2018-04-20T19:35:00.261Z,31.47
2018-04-20T19:37:26.593Z,31.33
2018-04-20T19:39:52.994Z,31.48
2018-04-20T19:42:19.316Z,31.65
2018-04-20T19:44:45.681Z,31.60
2018-04-20T19:47:12.065Z,31.51
2018-04-20T19:49:38.475Z,31.58
2018-04-20T19:52:04.804Z,31.45
2018-04-20T19:54:31.184Z,31.40
2018-04-20T19:56:57.524Z,31.56
2018-04-20T19:59:23.892Z,31.32
2018-04-20T20:01:50.235Z,31.54
2018-04-20T20:04:16.665Z,31.45
2018-04-20T20:06:42.984Z,31.70
2018-04-20T20:09:09.414Z,31.57
2018-04-20T20:11:35.736Z,31.73
2018-04-20T20:14:02.056Z,31.70
2018-04-20T20:16:28.414Z,31.54
2018-04-20T20:18:54.767Z,31.55
2018-04-20T20:21:21.168Z,31.86
2018-04-20T20:23:47.518Z,31.53
2018-04-20T20:26:13.828Z,31.40
2018-04-20T20:28:40.190Z,31.45
2018-04-20T20:31:06.526Z,31.70
2018-04-20T20:33:32.884Z,31.83
2018-04-20T20:35:59.355Z,31.90
2018-04-20T20:38:25.713Z,32.07
2018-04-20T20:40:52.057Z,32.02
2018-04-20T20:43:18.417Z,32.10
2018-04-20T20:45:44.756Z,32.09
2018-04-20T20:48:11.101Z,32.17
2018-04-20T20:50:37.416Z,32.19
2018-04-20T20:53:03.776Z,32.19
2018-04-20T20:55:30.100Z,32.23
2018-04-20T20:57:56.433Z,32.27
2018-04-20T21:00:22.767Z,32.28
2018-04-20T21:02:49.105Z,32.41
2018-04-20T21:05:15.561Z,32.39
2018-04-20T21:07:41.889Z,32.31
2018-04-20T21:10:08.208Z,32.39
2018-04-20T21:12:34.512Z,32.40
2018-04-20T21:15:00.900Z,32.36
2018-04-20T21:17:27.238Z,32.51
2018-04-20T21:19:53.608Z,32.42
2018-04-20T21:22:19.924Z,32.40
2018-04-20T21:24:46.282Z,32.44
2018-04-20T21:27:12.637Z,32.51
2018-04-20T21:29:38.956Z,32.59
2018-04-20T21:32:05.312Z,32.48
2018-04-20T21:34:31.624Z,32.41
2018-04-20T21:36:58.067Z,32.48
2018-04-20T21:39:24.395Z,32.46
2018-04-20T21:41:50.764Z,32.42
2018-04-20T21:44:17.088Z,32.52
2018-04-20T21:46:43.496Z,32.46
2018-04-20T21:49:09.916Z,32.52
2018-04-20T21:51:36.248Z,32.53
2018-04-20T21:54:02.572Z,32.66
2018-04-20T21:56:28.960Z,32.57
2018-04-20T21:58:55.276Z,32.59
2018-04-20T22:01:21.591Z,32.64
2018-04-20T22:03:47.991Z,32.64
2018-04-20T22:06:14.352Z,32.68
2018-04-20T22:08:40.684Z,32.77
2018-04-20T22:11:07.072Z,32.75
2018-04-20T22:13:33.439Z,32.74
2018-04-20T22:15:59.810Z,32.67
2018-04-20T22:18:26.163Z,32.81
2018-04-20T22:20:52.576Z,32.91
2018-04-20T22:23:18.953Z,32.93
2018-04-20T22:25:45.314Z,32.97
2018-04-20T22:28:11.668Z,33.01
2018-04-20T22:30:38.039Z,33.05
2018-04-20T22:33:04.449Z,33.09
2018-04-20T22:35:30.809Z,33.05
2018-04-20T22:37:57.191Z,33.16
2018-04-20T22:40:23.564Z,33.21
2018-04-20T22:42:49.907Z,33.15
2018-04-20T22:45:16.272Z,33.27
2018-04-20T22:47:42.581Z,33.28
2018-04-20T22:50:08.964Z,33.34
2018-04-20T22:52:35.334Z,33.38
2018-04-20T22:55:01.684Z,33.41
2018-04-20T22:57:27.996Z,33.45
2018-04-20T22:59:54.318Z,33.38
2018-04-20T23:02:20.694Z,33.47
2018-04-20T23:04:47.044Z,33.48
2018-04-20T23:07:13.382Z,33.39
2018-04-20T23:09:39.737Z,33.49
2018-04-20T23:12:06.147Z,33.52
2018-04-20T23:14:32.502Z,33.58
2018-04-20T23:16:58.913Z,33.62
2018-04-20T23:19:25.269Z,33.57
2018-04-20T23:21:51.618Z,33.56
2018-04-20T23:26:49.243Z,33.60
2018-04-20T23:29:15.579Z,33.60
2018-04-20T23:31:41.906Z,33.60
2018-04-20T23:34:08.274Z,33.62
2018-04-20T23:36:34.592Z,33.77
2018-04-20T23:39:02.013Z,33.70
2018-04-20T23:41:28.364Z,33.76
2018-04-20T23:43:54.673Z,33.73
2018-04-20T23:46:21.001Z,33.81
2018-04-20T23:48:47.328Z,33.83
2018-04-20T23:51:13.875Z,33.82
2018-04-20T23:53:40.242Z,33.85
2018-04-20T23:56:06.597Z,33.83
2018-04-20T23:58:32.934Z,33.79
